METAR Data
IDs: Format: Raw Decoded Include TAF

Data at: 0350 UTC 22 Mar 2019

KIKV 220335Z AUTO 29007KT 10SM CLR 06/02 A3012 RMK AO2
KIKV 220315Z AUTO 27008KT 10SM CLR 06/02 A3012 RMK AO2
KIKV 220255Z AUTO 29007KT 10SM CLR 06/02 A3012 RMK AO2
KIKV 220235Z AUTO 29007KT 10SM CLR 07/02 A3011 RMK AO2
KIKV 220215Z AUTO 30007KT 10SM CLR 07/02 A3011 RMK AO2
KIKV 220155Z AUTO 29007KT 10SM CLR 07/02 A3011 RMK AO2
KIKV 220135Z AUTO 29007KT 10SM CLR 08/02 A3011 RMK AO2
KIKV 220115Z AUTO 32005KT 10SM CLR 08/01 A3011 RMK AO2
KIKV 220055Z AUTO 30007KT 10SM CLR 09/01 A3010 RMK AO2
KIKV 220035Z AUTO 28007KT 10SM CLR 09/01 A3009 RMK AO2
KIKV 220015Z AUTO 28010KT 10SM CLR 10/01 A3010 RMK AO2
KIKV 212355Z AUTO 29009G15KT 10SM CLR 11/01 A3010 RMK AO2
KIKV 212335Z AUTO 30011G16KT 10SM CLR 11/02 A3010 RMK AO2
KIKV 212315Z AUTO 29011G16KT 10SM CLR 11/02 A3010 RMK AO2
KIKV 212255Z AUTO 28010KT 10SM CLR 12/02 A3011 RMK AO2
KIKV 212235Z AUTO 30009G14KT 10SM CLR 12/01 A3011 RMK AO2
KIKV 212215Z AUTO 27011KT 10SM CLR 12/01 A3012 RMK AO2
KIKV 212155Z AUTO 29014KT 10SM CLR 12/01 A3012 RMK AO2
KIKV 212135Z AUTO 30013KT 10SM CLR 12/01 A3013 RMK AO2
KIKV 212115Z AUTO 29010G16KT 10SM CLR 11/01 A3013 RMK AO2
KIKV 212055Z AUTO 31011KT 10SM CLR 12/01 A3013 RMK AO2
KIKV 212035Z AUTO 29011KT 10SM CLR 11/00 A3014 RMK AO2
KIKV 212015Z AUTO 30011KT 10SM CLR 11/00 A3014 RMK AO2
KIKV 211955Z AUTO 28009G16KT 240V320 10SM CLR 10/00 A3015 RMK AO2
KIKV 211935Z AUTO 29009G15KT 270V330 10SM CLR 10/01 A3016 RMK AO2
KIKV 211915Z AUTO 30012KT 10SM CLR 10/00 A3016 RMK AO2
KIKV 211855Z AUTO 30008G15KT 260V320 10SM CLR 10/00 A3017 RMK AO2
KIKV 211835Z AUTO 28008G14KT 10SM CLR 09/M00 A3017 RMK AO2
KIKV 211815Z AUTO 27009KT 240V320 10SM CLR 09/M00 A3018 RMK AO2
KIKV 211755Z AUTO 29008KT 10SM CLR 09/M00 A3018 RMK AO2
KIKV 211735Z AUTO 34011G17KT 10SM CLR 09/M00 A3018 RMK AO2
KIKV 211715Z AUTO VRB04G13KT 10SM CLR 08/M00 A3019 RMK AO2
KIKV 211655Z AUTO 34010KT 290V360 10SM CLR 08/M01 A3019 RMK AO2
KIKV 211635Z AUTO 35009KT 10SM CLR 07/M01 A3020 RMK AO2
KIKV 211615Z AUTO 34011KT 10SM CLR 07/M01 A3019 RMK AO2
KIKV 211555Z AUTO 35009KT 10SM CLR 06/M00 A3019 RMK AO2
KIKV 211535Z AUTO 34007KT 10SM CLR 06/00 A3019 RMK AO2
KIKV 211515Z AUTO 36009KT 10SM CLR 05/00 A3019 RMK AO2
KIKV 211455Z AUTO 33007KT 10SM CLR 04/M00 A3019 RMK AO2
KIKV 211435Z AUTO 33009G14KT 10SM CLR 04/M00 A3020 RMK AO2
KIKV 211415Z AUTO 32009KT 10SM CLR 03/M00 A3019 RMK AO2
KIKV 211355Z AUTO 32008G14KT 10SM CLR 02/M00 A3019 RMK AO2
KIKV 211335Z AUTO 31010KT 10SM CLR 01/M00 A3019 RMK AO2
KIKV 211315Z AUTO 31007KT 10SM CLR 00/M01 A3019 RMK AO2
KIKV 211255Z AUTO 29007KT 10SM CLR M00/M01 A3018 RMK AO2
KIKV 211235Z AUTO 30007KT 10SM CLR M00/M01 A3017 RMK AO2
KIKV 211215Z AUTO 31006KT 10SM CLR M00/M01 A3017 RMK AO2
KIKV 211155Z AUTO 32008KT 10SM CLR M00/M01 A3017 RMK AO2
KIKV 211135Z AUTO 32006KT 10SM CLR M00/M01 A3016 RMK AO2
KIKV 211115Z AUTO 31005KT 10SM CLR M00/M01 A3016 RMK AO2
KIKV 211055Z AUTO 31006KT 10SM CLR M00/M01 A3015 RMK AO2
KIKV 211035Z AUTO 31005G10KT 10SM CLR 00/M01 A3015 RMK AO2
KIKV 211015Z AUTO 32007KT 10SM CLR 00/M01 A3014 RMK AO2
KIKV 210955Z AUTO 33009KT 10SM CLR 01/M00 A3014 RMK AO2
KIKV 210935Z AUTO 32010KT 10SM CLR 01/M00 A3014 RMK AO2
KIKV 210915Z AUTO 34008KT 10SM SCT042 01/00 A3013 RMK AO2
KIKV 210855Z AUTO 34009KT 10SM OVC042 02/00 A3013 RMK AO2
KIKV 210835Z AUTO 33009KT 10SM OVC042 02/01 A3013 RMK AO2
KIKV 210815Z AUTO 34009KT 10SM OVC043 02/00 A3013 RMK AO2
KIKV 210755Z AUTO 33008KT 10SM OVC043 02/00 A3013 RMK AO2
KIKV 210735Z AUTO 32009KT 10SM OVC044 02/00 A3013 RMK AO2
KIKV 210715Z AUTO 33008KT 10SM OVC044 02/00 A3013 RMK AO2
KIKV 210655Z AUTO 34007G13KT 10SM OVC045 02/00 A3012 RMK AO2
KIKV 210635Z AUTO 33008KT 10SM OVC046 02/00 A3012 RMK AO2
KIKV 210615Z AUTO 33009KT 10SM BKN047 02/00 A3011 RMK AO2
KIKV 210555Z AUTO 33007KT 10SM CLR 02/00 A3011 RMK AO2
KIKV 210535Z AUTO 33011KT 10SM CLR 02/01 A3011 RMK AO2
KIKV 210515Z AUTO 33011KT 10SM FEW044 02/01 A3010 RMK AO2
KIKV 210455Z AUTO 34011KT 10SM FEW044 03/01 A3010 RMK AO2
KIKV 210435Z AUTO 33011G16KT 10SM CLR 03/01 A3010 RMK AO2
KIKV 210415Z AUTO 34012G19KT 10SM CLR 04/02 A3009 RMK AO2
KIKV 210355Z AUTO 34012KT 10SM CLR 04/02 A3008 RMK AO2
KIKV 210335Z AUTO 33008KT 10SM CLR 04/01 A3008 RMK AO2
KIKV 210315Z AUTO 33007KT 10SM CLR 04/01 A3008 RMK AO2
KIKV 210255Z AUTO 34008KT 10SM SCT030 05/02 A3008 RMK AO2
KIKV 210235Z AUTO 35008G15KT 10SM BKN031 05/02 A3007 RMK AO2
KIKV 210215Z AUTO 34009KT 10SM CLR 06/01 A3006 RMK AO2
KIKV 210155Z AUTO 35012G18KT 10SM CLR 06/01 A3005 RMK AO2
KIKV 210135Z AUTO 33011G17KT 10SM CLR 07/01 A3005 RMK AO2
KIKV 210115Z AUTO 33011G17KT 10SM CLR 07/01 A3004 RMK AO2
KIKV 210055Z AUTO 34012KT 10SM CLR 07/01 A3003 RMK AO2
KIKV 210035Z AUTO 34010G18KT 10SM FEW038 08/01 A3002 RMK AO2
KIKV 210015Z AUTO 34013G18KT 10SM FEW036 SCT044 08/02 A3001 RMK AO2
KIKV 202355Z AUTO 35011G16KT 10SM FEW036 SCT046 BKN050 09/03 A3000 RMK AO2
KIKV 202335Z AUTO 32010G17KT 10SM FEW048 10/03 A2999 RMK AO2
KIKV 202315Z AUTO 32011G18KT FEW033 SCT040 OVC048 10/03 A2998 RMK AO2
KIKV 202255Z AUTO 32011G19KT 10SM SCT034 OVC041 10/03 A2998 RMK AO2
KIKV 202235Z AUTO 32018KT 10SM OVC041 10/03 A2997 RMK AO2
KIKV 202215Z AUTO 32018G23KT 10SM BKN040 11/03 A2996 RMK AO2
KIKV 202155Z AUTO 31017G24KT 10SM BKN042 11/02 A2995 RMK AO2
KIKV 202135Z AUTO 31015G22KT 10SM BKN043 12/02 A2995 RMK AO2
KIKV 202115Z AUTO 30020KT 10SM CLR 13/02 A2994 RMK AO2
KIKV 202055Z AUTO 28018G25KT 10SM FEW045 12/01 A2995 RMK AO2
KIKV 202035Z AUTO 28018G25KT 10SM SCT044 13/01 A2996 RMK AO2
KIKV 202015Z AUTO 28017KT 10SM SCT039 BKN044 12/02 A2996 RMK AO2
KIKV 201955Z AUTO 00000KT 10SM SCT033 BKN040 12/03 A2997 RMK AO2
KIKV 201935Z AUTO 00000KT 10SM SCT031 11/04 A2998 RMK AO2
KIKV 201915Z AUTO 00000KT 10SM CLR 09/03 A3000 RMK AO2
KIKV 201855Z AUTO 00000KT 10SM CLR 08/03 A3001 RMK AO2
KIKV 201835Z AUTO 00000KT 9SM FEW015 07/03 A3002 RMK AO2
KIKV 201815Z AUTO 00000KT 10SM BKN013 06/03 A3004 RMK AO2
KIKV 201755Z AUTO 00000KT 9SM BKN012 05/03 A3004 RMK AO2
KIKV 201735Z AUTO 00000KT 9SM BKN008 BKN012 04/02 A3005 RMK AO2
KIKV 201715Z AUTO 00000KT 8SM OVC008 03/02 A3006 RMK AO2
KIKV 201655Z AUTO 00000KT 5SM BR OVC007 03/02 A3007 RMK AO2
KIKV 201635Z AUTO 00000KT 4SM BR OVC006 02/02 A3008 RMK AO2
KIKV 201615Z AUTO 00000KT 3SM BR OVC005 02/02 A3008 RMK AO2
KIKV 201555Z AUTO 00000KT 5SM BR OVC005 02/01 A3009 RMK AO2